Airport Name : Pajala

Other Name : Pajala

ICAO : ESUP

IATA :

FAA :

Latitude : 67.245639

Longitude : 23.068911

Country : Sweden

Local Date and Time : 7/16/2019 9:01:00 PM

 

TAF (Terminal Aerodrome Forecast)

 

METAR (METeorological Aerodrome Report)

ESUP 161850Z AUTO VRB03KT //// R11///// SCT062/// BKN077/// 14/07 Q1014

ESUP 161820Z AUTO 01003KT //// R11///// SCT062/// BKN078/// 14/06 Q1014

ESUP 161750Z AUTO 02003KT //// R11///// SCT063/// BKN079/// 15/// Q////

ESUP 161720Z AUTO 01005KT 330V050 //// R11///// BKN066/// 15/// Q////

ESUP 161650Z AUTO 02006KT 340V060 //// R11///// // BKN070/// 15/05 Q////

ESUP 161620Z AUTO 02005KT 350V060 //// R11///// FEW066/// 16/06 Q////

ESUP 161550Z AUTO 02005KT 350V060 //// R11///// BKN057/// 15/05 Q////

ESUP 161520Z AUTO 02005KT 330V050 //// R11///// SCT060/// BKN073/// 15/07 Q//// RERA